Time;durP1;ratioP1;P1;durP2;ratioP2;P2;SDS_P1;SDS_P2;PMS_P1;PMS_P2;Temp;Humidity;BMP_temperature;BMP_pressure;BME280_temperature;BME280_humidity;BME280_pressure;Samples;Min_cycle;Max_cycle;Signal;HPM_P1;HPM_P2
2023/04/28 06:51:31;;;;;;;;;;;;;;;10.80;100.00;100965.69;6912177;22;19929;-64
2023/04/28 06:56:34;;;;;;;;;;;;;;;10.76;100.00;100961.56;10494482;28;19925;-68
2023/04/28 07:01:37;;;;;;;;;;;;;;;11.32;100.00;100957.47;10496050;28;20363;-67
2023/04/28 07:06:39;;;;;;;;;;;;;;;11.52;100.00;100952.84;10497662;28;19956;-67
2023/04/28 07:11:42;;;;;;;;;;;;;;;11.93;100.00;100954.81;10494909;28;19924;-68
2023/04/28 07:16:48;;;;;;;;;;;;;;;12.23;98.83;100953.88;10496326;28;19931;-68
2023/04/28 07:21:50;;;;;;;;;;;;;;;12.06;100.00;100958.38;10497795;28;19928;-68
2023/04/28 07:26:52;;;;;;;;;;;;;;;12.08;97.73;100972.22;10497221;28;19953;-68
2023/04/28 07:31:55;;;;;;;;;;;;;;;11.80;100.00;100965.19;10497472;28;19931;-68
2023/04/28 07:36:57;;;;;;;;;;;;;;;11.81;100.00;100952.91;10497664;28;19925;-68
2023/04/28 07:42:00;;;;;;;;;;;;;;;12.18;100.00;100946.28;10495135;28;20304;-68
2023/04/28 07:47:02;;;;;;;;;;;;;;;12.37;100.00;100945.13;10530319;28;19925;-68
2023/04/28 07:52:04;;;;;;;;;;;;;;;12.27;100.00;100936.97;10533854;28;20361;-68
2023/04/28 07:57:07;;;;;;;;;;;;;;;12.63;100.00;100936.44;10504959;28;19924;-68
2023/04/28 08:02:12;;;;;;;;;;;;;;;13.09;100.00;100932.63;10504440;28;20387;-68
2023/04/28 08:07:14;;;;;;;;;;;;;;;13.31;97.08;100929.41;10503878;28;19925;-68
2023/04/28 08:12:17;;;;;;;;;;;;;;;13.45;96.41;100933.78;10503831;28;19924;-68
2023/04/28 08:17:19;;;;;;;;;;;;;;;13.15;95.38;100932.22;10504755;28;19925;-68
2023/04/28 08:22:21;;;;;;;;;;;;;;;13.23;96.43;100929.09;10503181;28;20303;-68
2023/04/28 08:27:24;;;;;;;;;;;;;;;13.60;96.98;100931.06;10503266;28;19924;-68
2023/04/28 08:32:26;;;;;;;;;;;;;;;13.82;91.70;100928.66;10501386;28;20286;-68
2023/04/28 08:37:29;;;;;;;;;;;;;;;13.60;92.44;100926.66;10503481;28;19925;-68
2023/04/28 08:42:31;;;;;;;;;;;;;;;13.48;94.67;100924.84;10501785;28;19928;-68
2023/04/28 08:47:35;;;;;;;;;;;;;;;13.77;96.30;100936.03;10534415;28;19959;-68
2023/04/28 08:52:38;;;;;;;;;;;;;;;13.65;99.56;100952.63;10501255;28;19931;-69
2023/04/28 08:57:44;;;;;;;;;;;;;;;13.74;100.00;100952.03;10535335;28;19928;-69
2023/04/28 09:02:46;;;;;;;;;;;;;;;14.01;100.00;100945.81;10500337;28;19925;-69
2023/04/28 09:07:50;;;;;;;;;;;;;;;14.10;100.00;100948.66;10500851;28;19948;-69
2023/04/28 09:12:53;;;;;;;;;;;;;;;14.26;100.00;100940.50;10499788;28;20268;-68
2023/04/28 09:17:56;;;;;;;;;;;;;;;14.08;100.00;100936.53;10501440;28;19924;-68
2023/04/28 09:23:17;;;;;;;;;;;;;;;14.34;100.00;100925.94;10501280;28;20011;-68
2023/04/28 09:28:22;;;;;;;;;;;;;;;14.46;100.00;100932.97;10501664;28;19924;-68
2023/04/28 09:33:25;;;;;;;;;;;;;;;14.21;100.00;100932.09;10501551;28;19931;-68
2023/04/28 09:38:27;;;;;;;;;;;;;;;14.46;100.00;100925.09;10500170;28;20031;-68
2023/04/28 09:43:30;;;;;;;;;;;;;;;14.38;100.00;100928.25;10501119;28;19924;-68
2023/04/28 09:48:34;;;;;;;;;;;;;;;14.24;100.00;100923.09;10500231;28;19928;-68
2023/04/28 09:53:36;;;;;;;;;;;;;;;14.26;100.00;100916.81;10499764;28;20430;-68
2023/04/28 09:58:39;;;;;;;;;;;;;;;14.65;100.00;100914.06;10500500;28;19978;-68
2023/04/28 10:03:41;;;;;;;;;;;;;;;14.48;100.00;100915.28;10500233;28;19970;-68
2023/04/28 10:08:47;;;;;;;;;;;;;;;14.57;100.00;100901.41;10500095;28;19924;-68
2023/04/28 10:13:49;;;;;;;;;;;;;;;14.27;100.00;100907.97;10498673;28;19932;-68
2023/04/28 10:18:53;;;;;;;;;;;;;;;14.80;100.00;100912.13;10498665;28;19936;-69
2023/04/28 10:24:00;;;;;;;;;;;;;;;14.78;100.00;100912.22;10498983;28;20368;-69
2023/04/28 10:29:03;;;;;;;;;;;;;;;14.78;100.00;100912.22;10498339;28;19931;-69
2023/04/28 10:34:27;;;;;;;;;;;;;;;14.83;100.00;100915.38;10498099;28;19991;-69
2023/04/28 10:39:31;;;;;;;;;;;;;;;15.16;100.00;100910.34;10498604;28;19943;-69
2023/04/28 10:44:33;;;;;;;;;;;;;;;14.96;100.00;100914.44;10499111;28;19928;-69
2023/04/28 10:49:53;;;;;;;;;;;;;;;15.18;100.00;100918.97;10498968;28;19924;-68
2023/04/28 10:55:14;;;;;;;;;;;;;;;15.12;100.00;100920.28;10498072;28;20011;-69
2023/04/28 11:00:27;;;;;;;;;;;;;;;15.83;100.00;100909.66;10497777;28;19924;-69
2023/04/28 11:05:30;;;;;;;;;;;;;;;15.87;100.00;100908.47;10498072;28;20363;-69
2023/04/28 11:10:51;;;;;;;;;;;;;;;15.53;100.00;100916.31;10499083;28;19925;-68
2023/04/28 11:16:03;;;;;;;;;;;;;;;15.14;100.00;100913.09;10497754;28;20375;-69
2023/04/28 11:21:06;;;;;;;;;;;;;;;15.16;100.00;100921.75;10497722;28;20376;-68
2023/04/28 11:26:08;;;;;;;;;;;;;;;14.95;100.00;100915.44;10502269;28;19939;-68
2023/04/28 11:31:11;;;;;;;;;;;;;;;15.03;100.00;100921.81;10506296;28;19928;-68
2023/04/28 11:36:27;;;;;;;;;;;;;;;15.22;100.00;100913.34;10506079;28;19925;-68
2023/04/28 11:41:29;;;;;;;;;;;;;;;14.36;100.00;100927.53;10504764;28;20019;-68
2023/04/28 11:46:32;;;;;;;;;;;;;;;14.93;100.00;100923.44;10504513;28;19924;-68
2023/04/28 11:51:35;;;;;;;;;;;;;;;14.86;100.00;100925.69;10503670;28;20299;-68
2023/04/28 11:56:38;;;;;;;;;;;;;;;14.95;100.00;100918.91;10505283;28;19925;-68
2023/04/28 12:01:44;;;;;;;;;;;;;;;15.43;100.00;100917.97;10505090;28;20022;-68
2023/04/28 12:06:46;;;;;;;;;;;;;;;15.31;100.00;100914.44;10505088;28;19924;-68
2023/04/28 12:11:52;;;;;;;;;;;;;;;15.53;100.00;100921.59;10504301;28;20375;-68
2023/04/28 12:16:55;;;;;;;;;;;;;;;14.95;100.00;100923.34;10504519;28;19924;-68
2023/04/28 12:21:58;;;;;;;;;;;;;;;15.14;100.00;100921.00;10503207;28;19954;-69
2023/04/28 12:27:16;;;;;;;;;;;;;;;15.39;100.00;100932.34;10503561;28;19932;-68
2023/04/28 12:32:19;;;;;;;;;;;;;;;15.17;100.00;100925.22;10502276;28;19932;-69
2023/04/28 12:37:21;;;;;;;;;;;;;;;15.12;100.00;100922.91;10502597;28;19928;-69
2023/04/28 12:42:23;;;;;;;;;;;;;;;15.43;100.00;100920.59;10503635;28;19962;-69
2023/04/28 12:47:26;;;;;;;;;;;;;;;14.71;100.00;100921.53;10502815;28;19924;-68
2023/04/28 12:52:28;;;;;;;;;;;;;;;14.46;100.00;100930.34;10501753;28;19946;-69
2023/04/28 12:57:30;;;;;;;;;;;;;;;14.44;100.00;100935.72;10502988;28;19971;-68
2023/04/28 13:02:32;;;;;;;;;;;;;;;14.56;100.00;100930.50;10502155;28;19925;-69
2023/04/28 13:07:35;;;;;;;;;;;;;;;14.64;100.00;100933.47;10502006;28;20363;-69
2023/04/28 13:12:37;;;;;;;;;;;;;;;14.70;100.00;100938.31;10501735;28;20424;-69
2023/04/28 13:17:39;;;;;;;;;;;;;;;14.16;100.00;100949.16;10501507;28;20318;-69
2023/04/28 13:22:42;;;;;;;;;;;;;;;14.11;100.00;100957.38;10502010;28;19924;-69
2023/04/28 13:27:44;;;;;;;;;;;;;;;14.03;100.00;100944.75;10499940;28;20364;-68
2023/04/28 13:32:47;;;;;;;;;;;;;;;14.38;100.00;100938.78;10499913;28;19931;-68
2023/04/28 13:37:49;;;;;;;;;;;;;;;14.54;100.00;100935.91;10498899;28;20012;-68
2023/04/28 13:42:51;;;;;;;;;;;;;;;14.31;100.00;100938.38;10499953;28;19981;-68
2023/04/28 13:47:54;;;;;;;;;;;;;;;14.40;100.00;100925.50;10500591;28;19924;-68
2023/04/28 13:52:57;;;;;;;;;;;;;;;14.86;100.00;100924.84;10498805;28;19931;-68
2023/04/28 13:58:05;;;;;;;;;;;;;;;14.95;100.00;100924.16;10499191;28;19924;-68
2023/04/28 14:03:08;;;;;;;;;;;;;;;15.03;100.00;100921.81;10499787;28;19974;-68
2023/04/28 14:08:11;;;;;;;;;;;;;;;15.15;100.00;100925.31;10500178;28;19955;-68
2023/04/28 14:13:13;;;;;;;;;;;;;;;14.90;100.00;100931.56;10498234;28;19924;-68
2023/04/28 14:18:15;;;;;;;;;;;;;;;15.36;100.00;100924.66;10499771;28;19925;-68
2023/04/28 14:23:18;;;;;;;;;;;;;;;15.06;100.00;100926.00;10499089;28;19928;-67
2023/04/28 14:28:20;;;;;;;;;;;;;;;15.23;100.00;100924.72;10499566;28;19970;-67
2023/04/28 14:33:23;;;;;;;;;;;;;;;15.01;100.00;100934.28;10499410;28;19924;-68
2023/04/28 14:38:26;;;;;;;;;;;;;;;15.27;100.00;100933.28;10498754;28;19924;-68
2023/04/28 14:43:28;;;;;;;;;;;;;;;15.25;100.00;100930.75;10498473;28;20268;-68
2023/04/28 14:48:31;;;;;;;;;;;;;;;15.80;100.00;100933.63;10499012;28;19925;-68
2023/04/28 14:53:33;;;;;;;;;;;;;;;15.52;100.00;100934.91;10497142;28;19970;-68
2023/04/28 14:58:36;;;;;;;;;;;;;;;15.48;100.00;100934.28;10497463;28;20394;-68
2023/04/28 15:03:38;;;;;;;;;;;;;;;15.17;100.00;100933.97;10494363;28;19925;-68
2023/04/28 15:08:41;;;;;;;;;;;;;;;15.15;100.00;100940.31;10498835;28;19939;-68
2023/04/28 15:13:43;;;;;;;;;;;;;;;15.56;100.00;100939.81;10496909;28;20393;-68
2023/04/28 15:18:45;;;;;;;;;;;;;;;14.81;100.00;100942.78;10497734;28;20421;-68
2023/04/28 15:23:47;;;;;;;;;;;;;;;14.58;100.00;100941.81;10496679;28;19932;-69
2023/04/28 15:28:50;;;;;;;;;;;;;;;14.78;100.00;100961.47;10497920;28;19947;-68
2023/04/28 15:33:52;;;;;;;;;;;;;;;14.38;100.00;100969.56;10496501;28;19931;-68
2023/04/28 15:38:55;;;;;;;;;;;;;;;14.48;100.00;100952.16;10529803;28;19932;-68
2023/04/28 15:43:57;;;;;;;;;;;;;;;14.70;100.00;100961.19;10498124;28;19924;-68
2023/04/28 15:48:59;;;;;;;;;;;;;;;14.47;100.00;100963.63;10496877;28;19925;-68
2023/04/28 15:54:01;;;;;;;;;;;;;;;14.35;100.00;100975.03;10528015;28;19982;-68
2023/04/28 15:59:04;;;;;;;;;;;;;;;14.58;100.00;100976.06;10497630;28;19924;-68
2023/04/28 16:04:06;;;;;;;;;;;;;;;14.18;100.00;100986.75;10497625;28;19924;-68
2023/04/28 16:09:08;;;;;;;;;;;;;;;14.31;100.00;100987.59;10496211;28;19977;-70
2023/04/28 16:14:10;;;;;;;;;;;;;;;13.85;100.00;100999.50;10502431;28;19928;-69
2023/04/28 16:19:14;;;;;;;;;;;;;;;14.10;100.00;100998.66;10504569;28;19925;-69
2023/04/28 16:24:17;;;;;;;;;;;;;;;13.96;100.00;101011.09;10503697;28;20429;-69
2023/04/28 16:29:19;;;;;;;;;;;;;;;14.19;100.00;101005.09;10503348;28;19925;-69
2023/04/28 16:34:23;;;;;;;;;;;;;;;14.00;100.00;101004.66;10501111;28;20411;-68
2023/04/28 16:39:26;;;;;;;;;;;;;;;13.77;100.00;101014.09;10503073;28;20033;-69
2023/04/28 16:44:29;;;;;;;;;;;;;;;14.07;100.00;101009.41;10502093;28;19929;-69
2023/04/28 16:49:31;;;;;;;;;;;;;;;13.91;100.00;101003.50;10534888;28;19929;-68
2023/04/28 16:54:34;;;;;;;;;;;;;;;13.98;100.00;101014.47;10494983;28;19925;-70
2023/04/28 16:59:36;;;;;;;;;;;;;;;13.83;100.00;101021.59;10460843;28;19928;-69
2023/04/28 17:04:39;;;;;;;;;;;;;;;13.79;100.00;101015.69;10461329;28;19955;-66
2023/04/28 17:09:41;;;;;;;;;;;;;;;13.88;100.00;101014.22;10461171;28;19928;-68
2023/04/28 17:14:44;;;;;;;;;;;;;;;13.92;100.00;101013.94;10460954;28;19925;-68
2023/04/28 17:19:46;;;;;;;;;;;;;;;13.85;100.00;101015.31;10461222;28;19929;-68
2023/04/28 17:24:48;;;;;;;;;;;;;;;13.63;100.00;101029.03;10459412;28;19978;-68
2023/04/28 17:29:50;;;;;;;;;;;;;;;13.50;100.00;101028.16;10460039;28;19928;-68
2023/04/28 17:34:53;;;;;;;;;;;;;;;13.32;100.00;101038.94;10460190;28;19960;-68
2023/04/28 17:39:56;;;;;;;;;;;;;;;13.32;100.00;101041.56;10459894;28;19925;-68
2023/04/28 17:44:58;;;;;;;;;;;;;;;13.52;100.00;101045.53;10459175;28;19979;-68
2023/04/28 17:50:01;;;;;;;;;;;;;;;13.60;100.00;101047.69;10458551;28;19928;-69
2023/04/28 17:55:04;;;;;;;;;;;;;;;13.54;100.00;101054.16;10458670;28;19931;-69
2023/04/28 18:00:06;;;;;;;;;;;;;;;13.49;100.00;101058.06;10458653;28;19925;-70
2023/04/28 18:05:09;;;;;;;;;;;;;;;13.51;100.00;101064.88;10459130;28;19932;-71
2023/04/28 18:10:11;;;;;;;;;;;;;;;13.47;100.00;101059.94;10457646;28;19975;-70
2023/04/28 18:15:13;;;;;;;;;;;;;;;13.32;100.00;101072.31;10458616;28;19924;-70
2023/04/28 18:20:16;;;;;;;;;;;;;;;13.21;100.00;101070.31;10458051;28;20310;-70
2023/04/28 18:25:18;;;;;;;;;;;;;;;13.08;100.00;101075.53;10458424;28;19978;-69
2023/04/28 18:30:20;;;;;;;;;;;;;;;13.05;100.00;101096.75;10457545;28;19995;-71
2023/04/28 18:35:23;;;;;;;;;;;;;;;13.11;100.00;101096.38;10456955;28;19925;-71
2023/04/28 18:40:26;;;;;;;;;;;;;;;12.99;100.00;101103.25;10457296;28;20364;-70
2023/04/28 18:45:29;;;;;;;;;;;;;;;13.19;100.00;101103.75;10457082;28;19925;-70
2023/04/28 18:50:32;;;;;;;;;;;;;;;13.41;100.00;101090.09;10457322;28;20016;-70
2023/04/28 18:55:34;;;;;;;;;;;;;;;13.29;100.00;101089.06;10456697;28;19924;-70
2023/04/28 19:00:37;;;;;;;;;;;;;;;13.51;100.00;101090.34;10456872;28;20364;-70
2023/04/28 19:05:43;;;;;;;;;;;;;;;13.18;100.00;101096.81;10457266;28;19940;-70
2023/04/28 19:10:47;;;;;;;;;;;;;;;13.30;100.00;101109.19;10464789;22;19956;-68
2023/04/28 19:15:53;;;;;;;;;;;;;;;13.13;100.00;101119.91;10439066;28;20039;-67
2023/04/28 19:20:59;;;;;;;;;;;;;;;12.90;100.00;101137.13;10422224;28;20375;-67
2023/04/28 19:26:01;;;;;;;;;;;;;;;12.91;100.00;101146.69;10437378;28;19951;-67
2023/04/28 19:31:04;;;;;;;;;;;;;;;12.79;100.00;101146.53;10453269;28;19979;-67
2023/04/28 19:36:06;;;;;;;;;;;;;;;12.68;100.00;101150.75;10455868;28;19999;-67
2023/04/28 19:41:08;;;;;;;;;;;;;;;12.57;100.00;101164.50;10438285;28;20437;-67
2023/04/28 19:46:10;;;;;;;;;;;;;;;12.56;100.00;101176.81;10456112;28;19948;-67
2023/04/28 19:51:16;;;;;;;;;;;;;;;12.58;100.00;101172.28;10464324;28;19938;-67
2023/04/28 19:56:19;;;;;;;;;;;;;;;12.54;100.00;101183.94;10463144;28;19929;-66
2023/04/28 20:01:21;;;;;;;;;;;;;;;12.18;100.00;101187.75;10463274;28;20368;-66
2023/04/28 20:06:24;;;;;;;;;;;;;;;12.23;100.00;101198.00;10462286;28;19936;-66
2023/04/28 20:11:26;;;;;;;;;;;;;;;12.02;100.00;101194.81;10478167;28;19971;-67
2023/04/28 20:16:28;;;;;;;;;;;;;;;12.16;100.00;101201.94;10461013;28;19929;-67
2023/04/28 20:21:31;;;;;;;;;;;;;;;12.07;100.00;101191.03;10462424;28;20004;-67
2023/04/28 20:26:33;;;;;;;;;;;;;;;12.00;100.00;101194.94;10450777;28;19932;-67
2023/04/28 20:31:36;;;;;;;;;;;;;;;11.91;100.00;101200.69;10462462;28;19925;-67
2023/04/28 20:36:38;;;;;;;;;;;;;;;11.79;100.00;101190.88;10458726;28;19925;-67
2023/04/28 20:41:43;;;;;;;;;;;;;;;11.87;100.00;101200.00;10421061;28;19925;-67
2023/04/28 20:46:45;;;;;;;;;;;;;;;11.62;100.00;101210.16;10420567;28;20369;-67
2023/04/28 20:51:47;;;;;;;;;;;;;;;11.46;100.00;101212.78;10405815;28;19933;-68
2023/04/28 20:56:49;;;;;;;;;;;;;;;11.62;100.00;101211.00;10476068;28;19932;-68
2023/04/28 21:01:52;;;;;;;;;;;;;;;11.61;100.00;101217.16;10461007;28;19925;-68
2023/04/28 21:06:54;;;;;;;;;;;;;;;11.53;100.00;101220.22;10460405;28;19928;-68
2023/04/28 21:11:56;;;;;;;;;;;;;;;11.53;100.00;101219.34;10459506;28;19925;-68
2023/04/28 21:17:01;;;;;;;;;;;;;;;11.38;100.00;101209.72;10460922;28;19975;-68
2023/04/28 21:22:03;;;;;;;;;;;;;;;11.37;100.00;101214.13;10459877;28;20024;-68
2023/04/28 21:27:05;;;;;;;;;;;;;;;11.21;100.00;101226.34;10460569;28;19931;-68
2023/04/28 21:32:07;;;;;;;;;;;;;;;11.15;100.00;101219.66;10460400;28;19924;-68
2023/04/28 21:37:10;;;;;;;;;;;;;;;11.14;100.00;101241.56;10458807;28;19932;-68
2023/04/28 21:42:12;;;;;;;;;;;;;;;10.98;100.00;101233.66;10441139;28;19979;-68
2023/04/28 21:47:17;;;;;;;;;;;;;;;11.20;100.00;101237.78;10441450;28;20299;-67
2023/04/28 21:52:20;;;;;;;;;;;;;;;11.24;100.00;101232.28;10459619;28;19925;-68
2023/04/28 21:57:22;;;;;;;;;;;;;;;10.95;100.00;101231.19;10458419;28;19971;-68
2023/04/28 22:02:24;;;;;;;;;;;;;;;10.94;100.00;101232.09;10456683;28;19975;-68
2023/04/28 22:07:28;;;;;;;;;;;;;;;10.65;100.00;101234.44;10458577;28;19936;-68
2023/04/28 22:12:30;;;;;;;;;;;;;;;10.73;100.00;101253.25;10458633;28;19932;-68
2023/04/28 22:17:32;;;;;;;;;;;;;;;10.86;100.00;101245.63;10457067;28;19925;-68
2023/04/28 22:22:35;;;;;;;;;;;;;;;10.74;100.00;101256.69;10456827;28;19932;-68
2023/04/28 22:27:38;;;;;;;;;;;;;;;10.79;100.00;101267.78;10440448;28;20412;-68
2023/04/28 22:32:43;;;;;;;;;;;;;;;10.80;100.00;101263.44;10439122;28;20327;-68
2023/04/28 22:37:45;;;;;;;;;;;;;;;10.66;100.00;101269.34;10472346;28;20377;-68
2023/04/28 22:42:48;;;;;;;;;;;;;;;10.72;100.00;101269.03;10456234;28;20268;-68
2023/04/28 22:47:50;;;;;;;;;;;;;;;10.62;100.00;101273.88;10456918;28;19931;-68
2023/04/28 22:52:52;;;;;;;;;;;;;;;10.54;100.00;101289.13;10473086;28;20008;-68
2023/04/28 22:57:55;;;;;;;;;;;;;;;10.66;100.00;101285.03;10456056;28;19929;-66
2023/04/28 23:02:57;;;;;;;;;;;;;;;10.70;100.00;101294.47;10454135;28;20383;-65
2023/04/28 23:07:59;;;;;;;;;;;;;;;10.60;100.00;101304.53;10456965;28;19972;-65
2023/04/28 23:13:02;;;;;;;;;;;;;;;10.32;100.00;101303.28;10472407;28;19990;-66
2023/04/28 23:18:05;;;;;;;;;;;;;;;10.48;100.00;101302.53;10455445;28;19991;-66
2023/04/28 23:23:07;;;;;;;;;;;;;;;10.36;100.00;101319.69;10476467;28;19924;-66
2023/04/28 23:28:09;;;;;;;;;;;;;;;10.20;100.00;101323.00;10464000;28;19932;-68
2023/04/28 23:33:11;;;;;;;;;;;;;;;10.08;100.00;101338.44;10464399;28;19925;-68
2023/04/28 23:38:13;;;;;;;;;;;;;;;9.90;100.00;101337.50;10464799;28;19928;-68
2023/04/28 23:43:16;;;;;;;;;;;;;;;10.40;100.00;101326.44;10463469;28;19979;-66
2023/04/28 23:48:18;;;;;;;;;;;;;;;9.91;100.00;101336.59;10464049;28;19932;-66
2023/04/28 23:53:21;;;;;;;;;;;;;;;9.88;100.00;101350.66;10463124;28;19928;-68
2023/04/28 23:58:23;;;;;;;;;;;;;;;10.06;100.00;101337.66;10463930;28;19924;-67
